createdAt,value
2023-01-01T00:00:38.851Z,4.50
2023-01-01T00:06:20.179Z,3.58
2023-01-01T00:11:41.310Z,4.47
2023-01-01T00:17:02.145Z,4.78
2023-01-01T00:28:04.002Z,4.28
2023-01-01T00:33:24.594Z,4.43
2023-01-01T00:38:46.083Z,3.88
2023-01-01T00:44:07.398Z,4.05
2023-01-01T00:49:28.252Z,5.63
2023-01-01T00:54:48.919Z,2.40
2023-01-01T01:00:10.595Z,3.25
2023-01-01T01:05:32.949Z,2.42
2023-01-01T01:10:54.440Z,2.63
2023-01-01T01:16:30.610Z,2.95
2023-01-01T01:21:52.093Z,3.00
2023-01-01T01:27:12.757Z,2.22
2023-01-01T01:32:33.438Z,4.25
2023-01-01T01:37:54.108Z,3.10
2023-01-01T01:43:33.100Z,2.45
2023-01-01T01:48:56.754Z,2.15
2023-01-01T01:54:22.670Z,2.28
2023-01-01T01:59:48.761Z,3.78
2023-01-01T02:05:09.755Z,2.20
2023-01-01T02:10:30.897Z,3.10
2023-01-01T02:15:53.451Z,3.92
2023-01-01T02:21:53.118Z,2.40
2023-01-01T02:27:35.563Z,3.13
2023-01-01T02:33:05.493Z,2.70
2023-01-01T02:38:37.036Z,2.90
2023-01-01T02:49:18.128Z,2.63
2023-01-01T02:55:12.125Z,2.90
2023-01-01T03:00:35.400Z,4.18
2023-01-01T03:06:24.203Z,3.85
2023-01-01T03:12:20.477Z,4.32
2023-01-01T03:18:26.105Z,2.55
2023-01-01T03:23:54.689Z,3.17
2023-01-01T03:29:16.521Z,3.45
2023-01-01T03:34:47.261Z,3.28
2023-01-01T03:40:09.438Z,3.17
2023-01-01T03:45:35.462Z,3.85
2023-01-01T03:51:09.104Z,3.28
2023-01-01T03:56:39.432Z,4.80
2023-01-01T04:02:04.274Z,2.60
2023-01-01T04:07:25.508Z,3.80
2023-01-01T04:12:51.954Z,4.90
2023-01-01T04:18:12.972Z,2.53
2023-01-01T04:23:33.746Z,2.20
2023-01-01T04:28:54.375Z,2.40
2023-01-01T04:34:15.563Z,2.60
2023-01-01T04:39:36.800Z,2.60
2023-01-01T04:44:57.484Z,2.83
2023-01-01T04:50:18.226Z,3.80
2023-01-01T04:55:38.815Z,4.18
2023-01-01T05:00:59.824Z,2.13
2023-01-01T05:06:21.289Z,2.35
2023-01-01T05:11:41.991Z,3.17
2023-01-01T05:17:02.441Z,3.65
2023-01-01T05:22:23.182Z,3.08
2023-01-01T05:27:43.795Z,2.53
2023-01-01T05:33:04.520Z,3.05
2023-01-01T05:38:25.213Z,2.28
2023-01-01T05:43:46.302Z,2.00
2023-01-01T05:49:10.504Z,1.92
2023-01-01T05:54:31.483Z,1.67
2023-01-01T05:59:52.312Z,2.40
2023-01-01T06:05:12.845Z,2.60
2023-01-01T06:10:33.880Z,2.80
2023-01-01T06:15:56.652Z,1.77
2023-01-01T06:21:21.411Z,1.98
2023-01-01T06:26:42.233Z,1.40
2023-01-01T06:32:03.076Z,2.40
2023-01-01T06:37:24.177Z,2.13
2023-01-01T06:42:45.019Z,4.55
2023-01-01T06:48:05.987Z,2.42
2023-01-01T06:53:27.186Z,2.15
2023-01-01T06:58:47.873Z,2.05
2023-01-01T07:04:12.712Z,2.15
2023-01-01T07:09:33.438Z,3.33
2023-01-01T07:14:54.144Z,4.57
2023-01-01T07:20:14.780Z,4.68
2023-01-01T07:25:35.401Z,5.13
2023-01-01T07:30:56.204Z,2.08
2023-01-01T07:36:17.204Z,3.25
2023-01-01T07:41:38.310Z,2.53
2023-01-01T07:47:04.016Z,3.95
2023-01-01T07:52:25.093Z,3.40
2023-01-01T07:57:47.271Z,2.35
2023-01-01T08:03:10.483Z,3.28
2023-01-01T08:08:31.593Z,4.53
2023-01-01T08:13:52.258Z,2.97
2023-01-01T08:19:14.135Z,3.25
2023-01-01T08:24:35.290Z,2.95
2023-01-01T08:29:55.994Z,2.47
2023-01-01T08:35:16.878Z,2.80
2023-01-01T08:40:37.766Z,3.60
2023-01-01T08:45:58.936Z,3.40
2023-01-01T08:51:19.569Z,4.38
2023-01-01T08:56:40.838Z,3.20
2023-01-01T09:02:01.612Z,3.88
2023-01-01T09:07:22.633Z,2.35
2023-01-01T09:12:43.395Z,3.55
2023-01-01T09:18:04.441Z,3.15
2023-01-01T09:23:25.444Z,3.67
2023-01-01T09:28:46.178Z,3.72
2023-01-01T09:34:08.346Z,3.58
2023-01-01T09:39:30.358Z,3.13
2023-01-01T09:45:11.925Z,4.10
2023-01-01T09:50:40.156Z,4.18
2023-01-01T09:56:03.480Z,4.07
2023-01-01T10:01:43.123Z,2.63
2023-01-01T10:07:29.717Z,3.37
2023-01-01T10:13:06.542Z,4.85
2023-01-01T10:18:33.567Z,3.13
2023-01-01T10:24:32.010Z,4.72
2023-01-01T10:29:58.036Z,4.47
2023-01-01T10:35:31.477Z,4.03
2023-01-01T10:40:55.698Z,2.38
2023-01-01T10:46:27.551Z,3.70
2023-01-01T10:51:54.863Z,3.45
2023-01-01T10:57:30.420Z,3.90
2023-01-01T11:03:20.553Z,3.92
2023-01-01T11:08:49.060Z,4.18
2023-01-01T11:14:29.833Z,3.13
2023-01-01T11:19:55.520Z,3.70
2023-01-01T11:25:22.722Z,3.28
2023-01-01T11:31:00.438Z,7.07
2023-01-01T11:36:33.023Z,3.25
2023-01-01T11:41:56.294Z,4.45
2023-01-01T11:47:34.458Z,5.10
2023-01-01T11:52:58.747Z,5.95
2023-01-01T11:58:52.488Z,4.43
2023-01-01T12:04:19.887Z,6.47
2023-01-01T12:09:57.656Z,6.70
2023-01-01T12:15:35.445Z,5.38
2023-01-01T12:21:05.082Z,3.45
2023-01-01T12:26:32.538Z,6.88
2023-01-01T12:32:23.041Z,4.93
2023-01-01T12:38:21.042Z,5.68
2023-01-01T12:44:06.468Z,4.72
2023-01-01T12:49:40.307Z,5.65
2023-01-01T12:55:39.616Z,6.70
2023-01-01T13:01:13.015Z,5.65
2023-01-01T13:06:49.996Z,5.68
2023-01-01T13:12:25.400Z,5.28
2023-01-01T13:17:53.210Z,6.00
2023-01-01T13:23:29.225Z,3.85
2023-01-01T13:28:58.899Z,5.55
2023-01-01T13:34:35.730Z,4.35
2023-01-01T13:39:58.170Z,5.13
2023-01-01T13:46:10.567Z,6.20
2023-01-01T13:52:07.551Z,5.30
2023-01-01T13:57:56.847Z,6.88
2023-01-01T14:03:18.871Z,5.03
2023-01-01T14:08:40.433Z,6.72
2023-01-01T14:14:01.519Z,4.47
2023-01-01T14:19:24.014Z,5.47
2023-01-01T14:24:47.816Z,5.05
2023-01-01T14:30:16.214Z,9.85
2023-01-01T14:35:37.200Z,8.30
2023-01-01T14:41:14.245Z,7.93
2023-01-01T14:46:40.337Z,8.20
2023-01-01T14:52:05.942Z,10.10
2023-01-01T14:57:33.077Z,6.28
2023-01-01T15:02:54.102Z,9.32
2023-01-01T15:08:21.867Z,6.38
2023-01-01T15:13:53.568Z,7.28
2023-01-01T15:19:18.325Z,5.85
2023-01-01T15:24:40.085Z,5.30
2023-01-01T15:30:07.067Z,7.57
2023-01-01T15:40:55.149Z,7.38
2023-01-01T15:46:26.114Z,10.10
2023-01-01T15:51:58.895Z,6.97
2023-01-01T15:57:22.873Z,9.85
2023-01-01T16:02:43.866Z,9.68
2023-01-01T16:08:05.704Z,11.30
2023-01-01T16:13:29.202Z,16.80
2023-01-01T16:18:50.252Z,9.07
2023-01-01T16:24:14.985Z,9.75
2023-01-01T16:29:36.081Z,9.07
2023-01-01T16:34:57.158Z,9.30
2023-01-01T16:40:17.852Z,10.65
2023-01-01T16:45:38.580Z,11.35
2023-01-01T16:50:59.305Z,10.05
2023-01-01T16:56:20.217Z,16.02
2023-01-01T17:01:41.397Z,19.77
2023-01-01T17:07:02.360Z,21.88
2023-01-01T17:12:23.054Z,18.60
2023-01-01T17:17:43.808Z,18.85
2023-01-01T17:23:04.635Z,12.50
2023-01-01T17:28:25.337Z,12.75
2023-01-01T17:33:46.844Z,14.15
2023-01-01T17:39:10.151Z,8.77
2023-01-01T17:44:32.286Z,9.75
2023-01-01T17:49:52.987Z,14.55
2023-01-01T17:55:13.838Z,8.63
2023-01-01T18:00:34.709Z,11.25
2023-01-01T18:05:56.557Z,11.20
2023-01-01T18:11:17.769Z,7.75
2023-01-01T18:16:40.848Z,5.18
2023-01-01T18:22:02.913Z,12.38
2023-01-01T18:27:23.941Z,8.82
2023-01-01T18:32:44.652Z,11.10
2023-01-01T18:38:05.575Z,9.18
2023-01-01T18:43:26.249Z,8.55
2023-01-01T18:48:46.969Z,10.38
2023-01-01T18:54:14.051Z,17.02
2023-01-01T18:59:36.806Z,16.45
2023-01-01T19:05:17.392Z,12.98
2023-01-01T19:16:12.859Z,10.63
2023-01-01T19:21:33.634Z,13.05
2023-01-01T19:27:05.137Z,12.20
2023-01-01T19:32:25.862Z,13.15
2023-01-01T19:37:46.756Z,13.13
2023-01-01T19:43:07.753Z,13.80
2023-01-01T19:48:30.348Z,18.73
2023-01-01T19:53:53.010Z,15.80
2023-01-01T19:59:18.347Z,25.40
2023-01-01T20:04:40.226Z,20.50
2023-01-01T20:10:01.373Z,17.85
2023-01-01T20:15:22.954Z,21.27
2023-01-01T20:21:02.304Z,19.23
2023-01-01T20:26:26.073Z,17.95
2023-01-01T20:31:48.854Z,21.95
2023-01-01T20:37:28.301Z,18.52
2023-01-01T20:42:49.477Z,18.03
2023-01-01T20:48:14.713Z,19.70
2023-01-01T20:53:38.596Z,16.83
2023-01-01T20:59:07.670Z,19.90
2023-01-01T21:04:39.822Z,17.40
2023-01-01T21:10:01.329Z,19.40
2023-01-01T21:15:22.065Z,20.73
2023-01-01T21:20:47.546Z,20.05
2023-01-01T21:26:16.177Z,20.10
2023-01-01T21:31:39.286Z,21.30
2023-01-01T21:37:42.761Z,20.75
2023-01-01T21:43:23.863Z,35.80
2023-01-01T21:48:56.781Z,30.77
2023-01-01T21:54:22.722Z,33.22
2023-01-01T21:59:46.373Z,31.52
2023-01-01T22:05:42.505Z,36.50
2023-01-01T22:11:15.747Z,35.42
2023-01-01T22:16:36.535Z,33.75
2023-01-01T22:21:57.159Z,25.40
2023-01-01T22:27:27.908Z,22.55
2023-01-01T22:32:52.615Z,23.15
2023-01-01T22:38:19.706Z,22.30
2023-01-01T22:43:43.172Z,19.73
2023-01-01T22:49:32.246Z,18.23
2023-01-01T22:54:53.005Z,18.45
2023-01-01T23:00:16.016Z,19.33
2023-01-01T23:05:37.054Z,21.45
2023-01-01T23:10:59.748Z,20.90
2023-01-01T23:16:20.955Z,16.60
2023-01-01T23:21:42.416Z,32.35
2023-01-01T23:27:03.902Z,25.35
2023-01-01T23:32:24.914Z,25.30
2023-01-01T23:37:45.641Z,22.23
2023-01-01T23:43:06.353Z,18.58
2023-01-01T23:48:28.457Z,12.70
2023-01-01T23:53:49.280Z,23.48
2023-01-01T23:59:11.942Z,10.50
